createdAt,value
2022-12-27T00:00:13.904Z,5.76
2022-12-27T00:03:02.834Z,5.72
2022-12-27T00:05:31.787Z,5.70
2022-12-27T00:08:00.606Z,5.68
2022-12-27T00:10:29.553Z,5.64
2022-12-27T00:12:58.507Z,5.55
2022-12-27T00:15:27.724Z,5.53
2022-12-27T00:17:56.583Z,5.52
2022-12-27T00:20:25.653Z,5.50
2022-12-27T00:22:54.597Z,5.44
2022-12-27T00:25:23.541Z,5.28
2022-12-27T00:27:52.361Z,5.20
2022-12-27T00:30:21.269Z,5.15
2022-12-27T00:32:50.154Z,5.13
2022-12-27T00:35:19.145Z,5.08
2022-12-27T00:37:47.990Z,5.02
2022-12-27T00:40:17.006Z,4.95
2022-12-27T00:42:45.839Z,4.92
2022-12-27T00:45:15.247Z,4.87
2022-12-27T00:47:44.112Z,4.81
2022-12-27T00:50:12.951Z,4.78
2022-12-27T00:52:41.791Z,4.77
2022-12-27T00:55:11.116Z,4.68
2022-12-27T00:57:40.041Z,4.68
2022-12-27T01:00:12.031Z,4.60
2022-12-27T01:02:41.290Z,4.52
2022-12-27T01:05:10.391Z,4.39
2022-12-27T01:07:39.404Z,4.34
2022-12-27T01:10:09.365Z,4.34
2022-12-27T01:12:38.452Z,4.32
2022-12-27T01:15:09.694Z,4.31
2022-12-27T01:17:38.665Z,4.29
2022-12-27T01:20:09.802Z,4.26
2022-12-27T01:22:38.623Z,4.15
2022-12-27T01:25:09.153Z,4.09
2022-12-27T01:27:38.025Z,4.06
2022-12-27T01:30:09.599Z,4.04
2022-12-27T01:32:38.460Z,4.02
2022-12-27T01:35:08.636Z,4.01
2022-12-27T01:37:37.473Z,4.00
2022-12-27T01:40:09.069Z,4.03
2022-12-27T01:42:53.273Z,4.02
2022-12-27T01:45:23.750Z,4.03
2022-12-27T01:47:58.680Z,4.02
2022-12-27T01:50:32.303Z,3.98
2022-12-27T01:53:06.729Z,4.00
2022-12-27T01:55:42.771Z,3.99
2022-12-27T01:58:12.589Z,3.98
2022-12-27T02:00:44.113Z,3.93
2022-12-27T02:03:17.540Z,3.88
2022-12-27T02:05:46.502Z,3.86
2022-12-27T02:08:28.799Z,3.83
2022-12-27T02:10:58.656Z,3.83
2022-12-27T02:13:29.028Z,3.85
2022-12-27T02:15:57.863Z,3.85
2022-12-27T02:18:26.779Z,3.84
2022-12-27T02:21:23.141Z,3.84
2022-12-27T02:24:22.402Z,3.81
2022-12-27T02:27:00.679Z,3.80
2022-12-27T02:29:43.305Z,3.81
2022-12-27T02:32:17.283Z,3.82
2022-12-27T02:34:56.332Z,3.86
2022-12-27T02:37:30.480Z,3.88
2022-12-27T02:40:21.633Z,3.84
2022-12-27T02:43:09.656Z,3.80
2022-12-27T02:46:00.622Z,3.79
2022-12-27T02:48:47.757Z,3.70
2022-12-27T02:51:49.202Z,3.66
2022-12-27T02:54:38.142Z,3.62
2022-12-27T02:57:18.727Z,3.61
2022-12-27T03:00:27.882Z,3.61
2022-12-27T03:03:23.900Z,3.63
2022-12-27T03:06:40.709Z,3.67
2022-12-27T03:09:45.599Z,3.75
2022-12-27T03:12:43.359Z,3.75
2022-12-27T03:15:42.810Z,3.73
2022-12-27T03:18:18.730Z,3.66
2022-12-27T03:21:08.001Z,3.60
2022-12-27T03:23:56.683Z,3.53
2022-12-27T03:26:30.760Z,3.40
2022-12-27T03:29:20.259Z,3.36
2022-12-27T03:32:12.204Z,3.32
2022-12-27T03:34:46.894Z,3.34
2022-12-27T03:37:36.826Z,3.37
2022-12-27T03:40:11.186Z,3.35
2022-12-27T03:43:05.520Z,3.35
2022-12-27T03:46:03.483Z,3.36
2022-12-27T03:48:39.010Z,3.35
2022-12-27T03:51:08.863Z,3.34
2022-12-27T03:53:40.983Z,3.35
2022-12-27T03:56:11.324Z,3.32
2022-12-27T03:58:40.343Z,3.26
2022-12-27T04:01:09.326Z,3.25
2022-12-27T04:03:38.447Z,3.25
2022-12-27T04:06:07.818Z,3.21
2022-12-27T04:08:54.990Z,3.19
2022-12-27T04:11:42.162Z,3.19
2022-12-27T04:14:29.264Z,3.20
2022-12-27T04:17:16.507Z,3.23
2022-12-27T04:20:03.569Z,3.31
2022-12-27T04:22:50.780Z,3.32
2022-12-27T04:25:37.977Z,3.33
2022-12-27T04:28:25.079Z,3.35
2022-12-27T04:31:12.376Z,3.38
2022-12-27T04:33:59.824Z,3.45
2022-12-27T04:36:28.784Z,3.47
2022-12-27T04:38:57.653Z,3.44
2022-12-27T04:41:44.863Z,3.38
2022-12-27T04:44:31.873Z,3.36
2022-12-27T04:47:19.098Z,3.38
2022-12-27T04:50:06.294Z,3.41
2022-12-27T04:52:53.839Z,3.48
2022-12-27T04:55:24.389Z,3.51
2022-12-27T04:57:54.220Z,3.51
2022-12-27T05:00:44.150Z,3.53
2022-12-27T05:03:16.208Z,3.52
2022-12-27T05:05:46.795Z,3.45
2022-12-27T05:08:34.579Z,3.38
2022-12-27T05:11:21.868Z,3.38
2022-12-27T05:13:59.825Z,3.31
2022-12-27T05:16:29.753Z,3.28
2022-12-27T05:18:58.661Z,3.27
2022-12-27T05:21:27.895Z,3.24
2022-12-27T05:24:15.231Z,3.23
2022-12-27T05:26:44.200Z,3.20
2022-12-27T05:29:13.028Z,3.15
2022-12-27T05:31:41.923Z,3.19
2022-12-27T05:34:10.937Z,3.19
2022-12-27T05:36:39.752Z,3.16
2022-12-27T05:39:08.628Z,3.16
2022-12-27T05:41:37.437Z,3.14
2022-12-27T05:44:07.567Z,3.09
2022-12-27T05:46:36.726Z,3.08
2022-12-27T05:49:05.813Z,3.08
2022-12-27T05:51:34.659Z,3.12
2022-12-27T05:54:03.604Z,3.15
2022-12-27T05:56:34.873Z,3.17
2022-12-27T05:59:03.703Z,3.14
2022-12-27T06:01:32.629Z,3.14
2022-12-27T06:04:01.761Z,3.15
2022-12-27T06:06:31.308Z,3.16
2022-12-27T06:09:00.244Z,3.17
2022-12-27T06:11:29.099Z,3.17
2022-12-27T06:13:57.923Z,3.19
2022-12-27T06:16:26.809Z,3.21
2022-12-27T06:18:55.697Z,3.24
2022-12-27T06:21:24.666Z,3.26
2022-12-27T06:23:53.521Z,3.28
2022-12-27T06:26:24.557Z,3.33
2022-12-27T06:28:54.671Z,3.34
2022-12-27T06:31:24.659Z,3.38
2022-12-27T06:33:54.271Z,3.43
2022-12-27T06:36:25.822Z,3.50
2022-12-27T06:38:54.719Z,3.59
2022-12-27T06:41:23.832Z,3.65
2022-12-27T06:43:56.935Z,3.66
2022-12-27T06:46:26.043Z,3.67
2022-12-27T06:48:54.911Z,3.71
2022-12-27T06:51:23.771Z,3.73
2022-12-27T06:53:52.703Z,3.74
2022-12-27T06:56:23.298Z,3.73
2022-12-27T06:58:53.411Z,3.73
2022-12-27T07:01:24.461Z,3.77
2022-12-27T07:03:55.481Z,3.79
2022-12-27T07:06:25.639Z,3.81
2022-12-27T07:08:56.040Z,3.82
2022-12-27T07:11:26.077Z,3.84
2022-12-27T07:13:55.723Z,3.88
2022-12-27T07:16:26.950Z,3.93
2022-12-27T07:18:57.742Z,4.00
2022-12-27T07:21:29.090Z,4.08
2022-12-27T07:23:57.962Z,4.17
2022-12-27T07:26:29.291Z,4.31
2022-12-27T07:28:59.959Z,4.44
2022-12-27T07:31:31.429Z,4.56
2022-12-27T07:34:02.861Z,4.62
2022-12-27T07:36:35.511Z,4.63
2022-12-27T07:39:05.079Z,4.68
2022-12-27T07:41:34.572Z,4.73
2022-12-27T07:44:04.415Z,4.79
2022-12-27T07:46:33.798Z,4.83
2022-12-27T07:49:02.736Z,4.89
2022-12-27T07:51:31.544Z,4.90
2022-12-27T07:54:01.284Z,4.94
2022-12-27T07:56:30.578Z,5.02
2022-12-27T07:59:00.791Z,5.15
2022-12-27T08:01:59.567Z,5.18
2022-12-27T08:04:28.621Z,5.19
2022-12-27T08:07:02.058Z,5.26
2022-12-27T08:09:34.454Z,5.36
2022-12-27T08:12:03.372Z,5.40
2022-12-27T08:14:32.210Z,5.51
2022-12-27T08:17:05.718Z,5.59
2022-12-27T08:19:34.734Z,5.76
2022-12-27T08:22:04.614Z,5.93
2022-12-27T08:24:33.652Z,6.13
2022-12-27T08:27:02.595Z,6.26
2022-12-27T08:29:31.495Z,6.31
2022-12-27T08:32:00.419Z,6.24
2022-12-27T08:34:29.295Z,6.29
2022-12-27T08:36:58.265Z,6.32
2022-12-27T08:39:29.463Z,6.26
2022-12-27T08:41:58.766Z,6.30
2022-12-27T08:44:27.693Z,6.32
2022-12-27T08:46:56.539Z,6.30
2022-12-27T08:49:25.490Z,6.26
2022-12-27T08:51:54.398Z,6.26
2022-12-27T08:54:23.774Z,6.25
2022-12-27T08:56:52.819Z,6.20
2022-12-27T08:59:21.777Z,6.23
2022-12-27T09:01:50.825Z,6.24
2022-12-27T09:04:19.998Z,6.27
2022-12-27T09:06:48.836Z,6.29
2022-12-27T09:09:18.099Z,6.35
2022-12-27T09:11:47.030Z,6.46
2022-12-27T09:14:15.901Z,6.57
2022-12-27T09:16:44.857Z,6.74
2022-12-27T09:19:13.856Z,7.03
2022-12-27T09:21:43.874Z,7.29
2022-12-27T09:24:14.049Z,7.46
2022-12-27T09:26:43.056Z,7.62
2022-12-27T09:29:11.935Z,7.85
2022-12-27T09:31:40.828Z,8.10
2022-12-27T09:34:10.695Z,8.20
2022-12-27T09:36:41.627Z,8.31
2022-12-27T09:39:13.065Z,8.45
2022-12-27T09:42:45.842Z,8.55
2022-12-27T09:44:50.232Z,8.66
2022-12-27T09:47:25.038Z,8.76
2022-12-27T09:49:58.372Z,8.81
2022-12-27T09:52:34.502Z,8.85
2022-12-27T09:55:12.038Z,8.87
2022-12-27T09:57:43.693Z,9.03
2022-12-27T10:00:18.934Z,9.19
2022-12-27T10:02:48.535Z,9.45
2022-12-27T10:05:22.526Z,9.69
2022-12-27T10:08:05.158Z,9.93
2022-12-27T10:10:43.102Z,10.12
2022-12-27T10:13:29.683Z,10.28
2022-12-27T10:16:07.244Z,10.47
2022-12-27T10:18:49.481Z,10.62
2022-12-27T10:21:24.296Z,10.71
2022-12-27T10:23:56.691Z,10.82
2022-12-27T10:26:25.904Z,10.95
2022-12-27T10:29:00.810Z,11.04
2022-12-27T10:31:32.060Z,11.14
2022-12-27T10:34:03.924Z,11.22
2022-12-27T10:36:35.476Z,11.33
2022-12-27T10:39:06.018Z,11.41
2022-12-27T10:41:49.513Z,11.48
2022-12-27T10:44:18.363Z,11.43
2022-12-27T10:46:52.616Z,11.44
2022-12-27T10:49:26.452Z,11.53
2022-12-27T10:51:58.249Z,11.56
2022-12-27T10:54:29.466Z,11.58
2022-12-27T10:57:18.675Z,11.66
2022-12-27T11:00:17.825Z,11.80
2022-12-27T11:02:54.221Z,11.85
2022-12-27T11:05:25.950Z,11.85
2022-12-27T11:07:55.601Z,11.78
2022-12-27T11:10:27.387Z,11.71
2022-12-27T11:13:01.289Z,11.72
2022-12-27T11:15:33.409Z,11.72
2022-12-27T11:18:09.752Z,11.73
2022-12-27T11:20:42.438Z,11.76
2022-12-27T11:23:15.934Z,11.79
2022-12-27T11:25:53.717Z,11.82
2022-12-27T11:28:29.901Z,11.77
2022-12-27T11:31:01.196Z,11.82
2022-12-27T11:33:38.629Z,11.82
2022-12-27T11:36:11.259Z,11.77
2022-12-27T11:38:44.170Z,11.77
2022-12-27T11:41:24.585Z,11.79
2022-12-27T11:44:01.706Z,11.78
2022-12-27T11:46:40.140Z,11.77
2022-12-27T11:49:16.753Z,11.76
2022-12-27T11:52:16.593Z,11.74
2022-12-27T11:55:03.699Z,11.77
2022-12-27T11:57:54.385Z,11.77
2022-12-27T12:00:31.341Z,11.80
2022-12-27T12:03:31.371Z,11.86
2022-12-27T12:06:12.160Z,11.88
2022-12-27T12:09:09.378Z,11.91
2022-12-27T12:11:56.708Z,11.93
2022-12-27T12:14:56.462Z,11.97
2022-12-27T12:17:49.666Z,12.02
2022-12-27T12:23:34.874Z,12.18
2022-12-27T12:26:18.043Z,12.20
2022-12-27T12:29:21.658Z,12.22
2022-12-27T12:32:33.750Z,12.24
2022-12-27T12:35:26.485Z,12.25
2022-12-27T12:38:06.146Z,12.26
2022-12-27T12:40:57.975Z,12.26
2022-12-27T12:43:57.278Z,12.28
2022-12-27T12:46:38.126Z,12.25
2022-12-27T12:49:30.814Z,12.26
2022-12-27T12:52:25.633Z,12.28
2022-12-27T12:55:40.330Z,12.25
2022-12-27T12:58:24.311Z,12.28
2022-12-27T13:01:20.067Z,12.29
2022-12-27T13:04:43.343Z,12.28
2022-12-27T13:07:42.951Z,12.24
2022-12-27T13:10:40.259Z,12.25
2022-12-27T13:13:20.195Z,12.25
2022-12-27T13:16:13.694Z,12.25
2022-12-27T13:18:57.367Z,12.26
2022-12-27T13:21:46.641Z,12.27
2022-12-27T13:24:30.135Z,12.30
2022-12-27T13:27:11.247Z,12.33
2022-12-27T13:30:05.988Z,12.35
2022-12-27T13:32:49.794Z,12.39
2022-12-27T13:35:36.940Z,12.42
2022-12-27T13:38:25.001Z,12.45
2022-12-27T13:41:30.742Z,12.47
2022-12-27T13:44:32.119Z,12.49
2022-12-27T13:47:25.854Z,12.50
2022-12-27T13:50:16.360Z,12.52
2022-12-27T13:53:03.298Z,12.52
2022-12-27T13:55:43.601Z,12.53
2022-12-27T13:58:46.990Z,12.55
2022-12-27T14:01:44.240Z,12.57
2022-12-27T14:04:39.973Z,12.60
2022-12-27T14:07:28.729Z,12.62
2022-12-27T14:10:27.301Z,12.60
2022-12-27T14:13:03.059Z,12.63
2022-12-27T14:15:59.939Z,12.61
2022-12-27T14:18:54.828Z,12.59
2022-12-27T14:21:52.222Z,12.55
2022-12-27T14:24:51.738Z,12.51
2022-12-27T14:28:26.661Z,12.47
2022-12-27T14:31:31.809Z,12.43
2022-12-27T14:34:37.929Z,12.41
2022-12-27T14:37:48.531Z,12.42
2022-12-27T14:40:53.527Z,12.42
2022-12-27T14:43:55.800Z,12.38
2022-12-27T14:46:50.354Z,12.31
2022-12-27T14:49:51.180Z,12.23
2022-12-27T14:52:52.631Z,12.17
2022-12-27T14:55:41.640Z,12.06
2022-12-27T14:58:28.858Z,12.02
2022-12-27T15:01:14.201Z,11.95
2022-12-27T15:04:08.946Z,11.84
2022-12-27T15:07:17.367Z,11.76
2022-12-27T15:09:58.841Z,11.68
2022-12-27T15:12:41.245Z,11.66
2022-12-27T15:15:28.994Z,11.65
2022-12-27T15:18:31.491Z,11.68
2022-12-27T15:21:41.288Z,11.68
2022-12-27T15:24:26.695Z,11.69
2022-12-27T15:27:08.584Z,11.67
2022-12-27T15:29:52.623Z,11.67
2022-12-27T15:32:34.041Z,11.65
2022-12-27T15:35:35.064Z,11.62
2022-12-27T15:38:13.209Z,11.55
2022-12-27T15:41:15.892Z,11.48
2022-12-27T15:44:21.502Z,11.37
2022-12-27T15:47:24.234Z,11.27
2022-12-27T15:50:33.950Z,11.11
2022-12-27T15:53:33.754Z,11.02
2022-12-27T15:56:30.700Z,10.92
2022-12-27T15:59:41.432Z,10.83
2022-12-27T16:02:51.266Z,10.68
2022-12-27T16:05:47.485Z,10.58
2022-12-27T16:08:29.174Z,10.44
2022-12-27T16:11:02.956Z,10.32
2022-12-27T16:13:48.435Z,10.26
2022-12-27T16:16:57.139Z,10.20
2022-12-27T16:19:47.558Z,10.20
2022-12-27T16:22:32.126Z,10.22
2022-12-27T16:25:25.510Z,10.24
2022-12-27T16:28:11.130Z,10.29
2022-12-27T16:30:47.812Z,10.37
2022-12-27T16:33:35.421Z,10.41
2022-12-27T16:36:23.314Z,10.51
2022-12-27T16:39:26.213Z,10.54
2022-12-27T16:42:07.667Z,10.63
2022-12-27T16:45:05.613Z,10.67
2022-12-27T16:47:57.573Z,10.70
2022-12-27T16:50:55.737Z,10.73
2022-12-27T16:53:46.245Z,10.71
2022-12-27T16:56:25.306Z,10.71
2022-12-27T16:58:58.074Z,10.68
2022-12-27T17:02:01.614Z,10.63
2022-12-27T17:05:00.550Z,10.58
2022-12-27T17:08:11.404Z,10.50
2022-12-27T17:10:58.676Z,10.46
2022-12-27T17:13:47.872Z,10.45
2022-12-27T17:16:23.905Z,10.45
2022-12-27T17:19:00.956Z,10.45
2022-12-27T17:21:35.395Z,10.43
2022-12-27T17:24:12.142Z,10.40
2022-12-27T17:27:14.783Z,10.33
2022-12-27T17:30:14.579Z,10.25
2022-12-27T17:33:14.030Z,10.18
2022-12-27T17:36:10.230Z,10.12
2022-12-27T17:38:55.792Z,10.08
2022-12-27T17:41:59.510Z,10.02
2022-12-27T17:44:45.017Z,9.96
2022-12-27T17:47:38.365Z,9.89
2022-12-27T17:50:18.961Z,9.81
2022-12-27T17:53:36.522Z,9.73
2022-12-27T17:56:45.447Z,9.68
2022-12-27T17:59:27.153Z,9.67
2022-12-27T18:02:05.564Z,9.68
2022-12-27T18:04:43.574Z,9.71
2022-12-27T18:07:23.403Z,9.74
2022-12-27T18:09:58.914Z,9.78
2022-12-27T18:12:35.846Z,9.83
2022-12-27T18:15:13.931Z,9.86
2022-12-27T18:17:49.699Z,9.88
2022-12-27T18:20:31.025Z,9.89
2022-12-27T18:23:17.896Z,9.91
2022-12-27T18:25:56.517Z,9.93
2022-12-27T18:28:33.379Z,9.95
2022-12-27T18:31:15.739Z,9.97
2022-12-27T18:33:52.590Z,9.98
2022-12-27T18:36:30.562Z,9.98
2022-12-27T18:39:07.385Z,9.97
2022-12-27T18:41:44.953Z,9.95
2022-12-27T18:44:26.465Z,9.93
2022-12-27T18:47:01.961Z,9.91
2022-12-27T18:49:37.322Z,9.87
2022-12-27T18:52:16.693Z,9.84
2022-12-27T18:54:49.171Z,9.82
2022-12-27T18:57:33.476Z,9.78
2022-12-27T19:00:17.226Z,9.72
2022-12-27T19:02:50.255Z,9.65
2022-12-27T19:05:31.391Z,9.59
2022-12-27T19:08:12.365Z,9.53
2022-12-27T19:10:51.701Z,9.51
2022-12-27T19:13:29.075Z,9.47
2022-12-27T19:16:02.191Z,9.46
2022-12-27T19:18:38.584Z,9.40
2022-12-27T19:21:16.360Z,9.33
2022-12-27T19:23:50.197Z,9.27
2022-12-27T19:26:33.193Z,9.21
2022-12-27T19:29:14.797Z,9.15
2022-12-27T19:31:54.740Z,9.14
2022-12-27T19:34:30.152Z,9.14
2022-12-27T19:37:02.346Z,9.12
2022-12-27T19:39:40.322Z,9.11
2022-12-27T19:42:16.163Z,9.09
2022-12-27T19:44:48.569Z,9.06
2022-12-27T19:47:20.763Z,9.00
2022-12-27T19:49:52.931Z,9.00
2022-12-27T19:52:27.696Z,8.97
2022-12-27T19:55:05.871Z,8.92
2022-12-27T19:57:40.266Z,8.89
2022-12-27T20:00:20.458Z,8.87
2022-12-27T20:02:52.710Z,8.83
2022-12-27T20:06:11.796Z,8.81
2022-12-27T20:08:29.148Z,8.80
2022-12-27T20:11:03.051Z,8.80
2022-12-27T20:13:35.360Z,8.78
2022-12-27T20:16:09.316Z,8.78
2022-12-27T20:18:44.290Z,8.74
2022-12-27T20:21:19.711Z,8.75
2022-12-27T20:23:52.501Z,8.78
2022-12-27T20:26:26.532Z,8.79
2022-12-27T20:29:00.026Z,8.81
2022-12-27T20:31:32.489Z,8.82
2022-12-27T20:34:05.185Z,8.82
2022-12-27T20:36:37.385Z,8.82
2022-12-27T20:39:09.871Z,8.84
2022-12-27T20:41:42.198Z,8.83
2022-12-27T20:44:15.895Z,8.80
2022-12-27T20:46:48.663Z,8.76
2022-12-27T20:49:20.865Z,8.74
2022-12-27T20:51:53.063Z,8.70
2022-12-27T20:54:25.917Z,8.70
2022-12-27T20:56:58.173Z,8.68
2022-12-27T20:59:30.534Z,8.66
2022-12-27T21:02:02.935Z,8.64
2022-12-27T21:04:35.436Z,8.63
2022-12-27T21:07:08.617Z,8.62
2022-12-27T21:09:40.825Z,8.60
2022-12-27T21:12:13.150Z,8.58
2022-12-27T21:14:45.436Z,8.57
2022-12-27T21:17:17.821Z,8.56
2022-12-27T21:19:50.080Z,8.56
2022-12-27T21:22:22.404Z,8.56
2022-12-27T21:24:54.685Z,8.56
2022-12-27T21:27:26.821Z,8.56
2022-12-27T21:29:59.100Z,8.54
2022-12-27T21:32:31.348Z,8.53
2022-12-27T21:35:03.700Z,8.50
2022-12-27T21:37:35.928Z,8.45
2022-12-27T21:40:10.541Z,8.42
2022-12-27T21:42:42.730Z,8.40
2022-12-27T21:45:15.180Z,8.37
2022-12-27T21:47:47.370Z,8.37
2022-12-27T21:50:19.707Z,8.35
2022-12-27T21:52:51.871Z,8.34
2022-12-27T21:55:24.073Z,8.33
2022-12-27T21:57:56.264Z,8.31
2022-12-27T22:00:28.558Z,8.30
2022-12-27T22:03:00.868Z,8.27
2022-12-27T22:05:33.512Z,8.22
2022-12-27T22:08:05.970Z,8.19
2022-12-27T22:10:38.221Z,8.27
2022-12-27T22:13:12.082Z,8.32
2022-12-27T22:15:44.352Z,8.38
2022-12-27T22:18:16.588Z,8.43
2022-12-27T22:20:48.754Z,8.46
2022-12-27T22:23:21.542Z,8.49
2022-12-27T22:25:53.947Z,8.53
2022-12-27T22:28:26.531Z,8.53
2022-12-27T22:30:59.211Z,8.56
2022-12-27T22:33:31.580Z,8.59
2022-12-27T22:36:08.151Z,8.63
2022-12-27T22:38:40.923Z,8.64
2022-12-27T22:41:15.648Z,8.67
2022-12-27T22:43:53.372Z,8.66
2022-12-27T22:46:28.444Z,8.64
2022-12-27T22:49:02.756Z,8.62
2022-12-27T22:51:37.264Z,8.60
2022-12-27T22:54:10.177Z,8.59
2022-12-27T22:56:43.938Z,8.56
2022-12-27T22:59:17.425Z,8.53
2022-12-27T23:01:49.763Z,8.48
2022-12-27T23:04:22.200Z,8.42
2022-12-27T23:06:54.469Z,8.34
2022-12-27T23:09:26.625Z,8.28
2022-12-27T23:11:58.793Z,8.23
2022-12-27T23:14:31.055Z,8.17
2022-12-27T23:17:03.326Z,8.10
2022-12-27T23:19:35.673Z,8.04
2022-12-27T23:22:08.463Z,7.97
2022-12-27T23:24:40.830Z,7.89
2022-12-27T23:27:13.041Z,7.79
2022-12-27T23:29:45.324Z,7.70
2022-12-27T23:32:17.587Z,7.63
2022-12-27T23:34:52.627Z,7.57
2022-12-27T23:37:24.806Z,7.52
2022-12-27T23:39:56.986Z,7.47
2022-12-27T23:42:29.364Z,7.42
2022-12-27T23:45:01.613Z,7.38
2022-12-27T23:47:33.820Z,7.31
2022-12-27T23:50:07.026Z,7.24
2022-12-27T23:52:39.195Z,7.16
2022-12-27T23:55:12.417Z,7.09
2022-12-27T23:57:44.743Z,7.03
